Time;durP1;ratioP1;P1;durP2;ratioP2;P2;SDS_P1;SDS_P2;PMS_P1;PMS_P2;Temp;Humidity;BMP_temperature;BMP_pressure;BME280_temperature;BME280_humidity;BME280_pressure;Samples;Min_cycle;Max_cycle;Signal;HPM_P1;HPM_P2
2023/05/19 00:01:13;;;;;;;16.38;10.90;;;;;;;8.74;82.24;102596.00;5034260;28;20022;-71
2023/05/19 00:03:51;;;;;;;20.75;10.40;;;;;;;8.73;82.60;102594.25;5033744;28;20442;-72
2023/05/19 00:06:20;;;;;;;18.67;10.82;;;;;;;8.66;83.17;102595.91;5037843;28;20481;-72
2023/05/19 00:08:45;;;;;;;15.43;10.43;;;;;;;8.66;84.09;102585.50;5041307;28;20053;-72
2023/05/19 00:11:11;;;;;;;18.75;10.98;;;;;;;8.61;83.76;102588.06;5034107;28;20018;-72
2023/05/19 00:13:36;;;;;;;17.73;10.68;;;;;;;8.58;83.87;102585.41;5034891;28;20032;-72
2023/05/19 00:16:02;;;;;;;13.57;10.50;;;;;;;8.56;83.95;102583.66;5045156;28;20025;-72
2023/05/19 00:18:28;;;;;;;17.80;11.23;;;;;;;8.55;83.94;102581.91;5033436;28;20025;-72
2023/05/19 00:20:53;;;;;;;16.48;11.25;;;;;;;8.53;84.88;102575.81;5039417;28;20046;-72
2023/05/19 00:23:19;;;;;;;15.35;11.15;;;;;;;8.54;84.80;102585.38;5033911;28;20725;-72
2023/05/19 00:25:44;;;;;;;16.90;10.23;;;;;;;8.55;85.42;102572.38;5032793;28;20042;-72
2023/05/19 00:28:09;;;;;;;15.02;10.30;;;;;;;8.52;84.86;102572.34;5032210;28;20525;-72
2023/05/19 00:30:35;;;;;;;16.95;10.85;;;;;;;8.46;83.73;102561.84;5041350;28;20029;-72
2023/05/19 00:33:00;;;;;;;15.18;10.50;;;;;;;8.48;84.54;102567.97;5032844;28;20389;-72
2023/05/19 00:35:25;;;;;;;17.20;10.20;;;;;;;8.42;84.15;102562.69;5039657;28;20041;-72
2023/05/19 00:37:51;;;;;;;18.60;10.68;;;;;;;8.39;85.58;102554.84;5041893;28;20453;-72
2023/05/19 00:40:16;;;;;;;17.77;10.30;;;;;;;8.37;85.35;102560.00;5035865;28;20107;-72
2023/05/19 00:42:41;;;;;;;18.48;11.30;;;;;;;8.38;85.04;102566.97;5033488;28;20029;-72
2023/05/19 00:45:07;;;;;;;18.58;10.52;;;;;;;8.36;86.00;102559.97;5032844;28;20132;-72
2023/05/19 00:47:33;;;;;;;16.75;10.57;;;;;;;8.30;85.89;102558.16;5031633;28;20030;-72
2023/05/19 00:49:58;;;;;;;16.90;10.55;;;;;;;8.32;86.45;102553.00;5041631;28;20112;-72
2023/05/19 00:52:24;;;;;;;16.13;10.88;;;;;;;8.26;87.35;102558.09;5032909;28;20025;-72
2023/05/19 00:54:50;;;;;;;15.55;10.02;;;;;;;8.27;86.49;102555.50;5031952;28;20037;-72
2023/05/19 00:57:16;;;;;;;16.75;10.38;;;;;;;8.26;86.59;102558.09;5035674;28;20048;-72
2023/05/19 00:59:41;;;;;;;19.48;10.35;;;;;;;8.19;86.33;102557.16;5034471;28;20025;-72
2023/05/19 01:02:06;;;;;;;17.50;10.30;;;;;;;8.09;86.85;102543.16;5041507;28;20127;-72
2023/05/19 01:04:33;;;;;;;16.08;10.60;;;;;;;8.19;87.02;102564.94;5031458;28;20031;-72
2023/05/19 01:06:59;;;;;;;14.75;10.00;;;;;;;8.15;86.79;102558.81;5031492;28;20503;-72
2023/05/19 01:09:25;;;;;;;18.50;10.18;;;;;;;8.11;87.20;102548.34;5030267;28;20033;-72
2023/05/19 01:11:50;;;;;;;17.55;9.93;;;;;;;7.98;87.37;102532.63;5031880;28;20109;-72
2023/05/19 01:14:17;;;;;;;17.20;10.23;;;;;;;8.09;88.55;102561.34;5041374;28;20407;-72
2023/05/19 01:16:50;;;;;;;18.92;10.25;;;;;;;8.09;89.57;102561.34;5031498;28;20389;-72
2023/05/19 01:19:45;;;;;;;18.10;10.27;;;;;;;8.08;89.10;102564.78;5038400;28;20108;-72
2023/05/19 01:22:31;;;;;;;16.45;9.07;;;;;;;8.08;90.17;102558.72;5032275;28;20029;-71
2023/05/19 01:25:32;;;;;;;14.60;9.27;;;;;;;8.01;90.15;102552.56;5026111;28;20037;-72
2023/05/19 01:28:29;;;;;;;11.15;8.27;;;;;;;8.02;92.07;102559.50;5032238;28;20083;-72
2023/05/19 01:30:59;;;;;;;17.67;9.88;;;;;;;7.92;93.96;102555.91;5025345;28;20041;-72
2023/05/19 01:33:27;;;;;;;17.60;9.32;;;;;;;7.89;93.61;102555.00;5032718;28;20116;-72
2023/05/19 01:35:54;;;;;;;14.45;8.25;;;;;;;7.93;94.21;102561.97;5038067;28;20041;-71
2023/05/19 01:38:20;;;;;;;14.77;8.20;;;;;;;7.85;95.34;102548.00;5033168;28;20397;-71
2023/05/19 01:40:48;;;;;;;13.73;8.43;;;;;;;7.85;95.26;102542.81;5032619;28;20040;-71
2023/05/19 01:43:19;;;;;;;18.48;9.57;;;;;;;7.89;95.92;102561.06;5031623;28;20079;-72
2023/05/19 01:45:45;;;;;;;15.30;8.65;;;;;;;7.86;95.91;102554.94;5040389;28;20049;-72
2023/05/19 01:48:15;;;;;;;13.65;9.15;;;;;;;7.80;96.32;102547.91;5037453;28;20113;-72
2023/05/19 01:50:41;;;;;;;15.20;8.32;;;;;;;7.77;96.84;102547.88;5039225;28;20037;-72
2023/05/19 01:53:07;;;;;;;14.57;9.32;;;;;;;7.76;97.48;102547.88;5039411;28;20029;-72
2023/05/19 01:55:34;;;;;;;15.65;8.35;;;;;;;7.60;98.09;102524.25;5032243;28;20133;-72
2023/05/19 01:58:12;;;;;;;13.75;8.85;;;;;;;7.70;98.19;102546.03;5030682;28;20057;-72
2023/05/19 02:00:54;;;;;;;16.00;8.82;;;;;;;7.66;98.88;102539.94;5031788;28;20091;-72
2023/05/19 02:03:37;;;;;;;20.13;8.98;;;;;;;7.71;99.91;102535.66;5033461;28;20437;-72
2023/05/19 02:06:40;;;;;;;15.73;8.32;;;;;;;7.68;99.12;102535.66;5037330;28;20063;-72
2023/05/19 02:09:12;;;;;;;16.08;9.18;;;;;;;7.64;99.34;102533.81;5031941;28;20037;-72
2023/05/19 02:12:01;;;;;;;15.43;8.38;;;;;;;7.59;98.75;102545.88;5031714;28;20022;-72
2023/05/19 02:14:37;;;;;;;18.65;9.38;;;;;;;7.57;100.00;102538.91;5041421;28;20029;-71
2023/05/19 02:17:03;;;;;;;16.90;9.90;;;;;;;7.46;100.00;102537.00;5037021;28;20090;-72
2023/05/19 02:19:34;;;;;;;16.55;9.35;;;;;;;7.48;100.00;102544.81;5047105;28;20021;-72
2023/05/19 02:21:59;;;;;;;16.33;8.48;;;;;;;7.42;100.00;102542.09;5031054;28;20038;-72
2023/05/19 02:24:25;;;;;;;13.43;8.90;;;;;;;7.33;100.00;102529.88;5037118;28;20373;-72
2023/05/19 02:26:52;;;;;;;20.75;9.13;;;;;;;7.40;100.00;102543.81;5033815;28;20033;-72
2023/05/19 02:29:18;;;;;;;16.35;8.80;;;;;;;7.30;100.00;102535.00;5037095;28;20028;-71
2023/05/19 02:31:43;;;;;;;16.95;9.15;;;;;;;7.32;100.00;102543.69;5034484;28;20030;-72
2023/05/19 02:34:09;;;;;;;12.18;8.40;;;;;;;7.33;100.00;102541.97;5035423;28;20040;-72
2023/05/19 02:36:38;;;;;;;14.40;8.45;;;;;;;7.33;100.00;102537.66;5035908;28;20025;-72
2023/05/19 02:39:03;;;;;;;16.00;9.00;;;;;;;7.32;100.00;102537.63;5035673;28;20029;-72
2023/05/19 02:41:29;;;;;;;14.57;9.65;;;;;;;7.23;100.00;102515.00;5035454;28;20033;-72
2023/05/19 02:43:54;;;;;;;15.60;9.75;;;;;;;7.23;100.00;102517.59;5036092;28;20049;-72
2023/05/19 02:46:20;;;;;;;15.27;9.18;;;;;;;7.21;100.00;102532.25;5035321;28;20033;-72
2023/05/19 02:48:45;;;;;;;16.85;10.32;;;;;;;7.15;100.00;102532.13;5036426;28;20026;-72
2023/05/19 02:51:10;;;;;;;13.77;8.70;;;;;;;7.13;100.00;102531.22;5035380;28;20487;-72
2023/05/19 02:53:36;;;;;;;24.25;9.60;;;;;;;7.12;100.00;102534.69;5034894;28;20033;-72
2023/05/19 02:56:01;;;;;;;14.90;9.73;;;;;;;7.11;100.00;102526.03;5035892;28;20032;-72
2023/05/19 02:58:26;;;;;;;14.57;9.07;;;;;;;7.12;100.00;102519.13;5035838;28;20439;-72
2023/05/19 03:00:52;;;;;;;14.55;10.00;;;;;;;7.12;100.00;102525.16;5036434;28;20029;-72
2023/05/19 03:03:17;;;;;;;15.32;9.27;;;;;;;7.03;100.00;102512.94;5038262;28;20109;-72
2023/05/19 03:05:42;;;;;;;14.35;9.30;;;;;;;7.00;100.00;102520.66;5035853;28;20453;-72
2023/05/19 03:08:08;;;;;;;16.90;9.88;;;;;;;6.98;100.00;102518.88;5039802;28;20030;-72
2023/05/19 03:10:34;;;;;;;18.95;9.80;;;;;;;6.95;100.00;102524.00;5039043;28;20676;-71
2023/05/19 03:12:59;;;;;;;16.40;9.32;;;;;;;6.96;100.00;102526.59;5034646;28;20082;-71
2023/05/19 03:15:24;;;;;;;16.48;9.57;;;;;;;6.92;100.00;102522.22;5039104;28;20037;-72
2023/05/19 03:17:50;;;;;;;14.02;9.52;;;;;;;6.87;100.00;102517.81;5040963;28;20495;-72
2023/05/19 03:20:16;;;;;;;17.70;9.77;;;;;;;6.91;100.00;102530.00;5040580;28;20025;-72
2023/05/19 03:22:41;;;;;;;14.45;9.45;;;;;;;6.91;100.00;102535.16;5042672;28;20109;-72
2023/05/19 03:25:07;;;;;;;21.15;9.73;;;;;;;6.89;100.00;102537.72;5038382;28;20037;-72
2023/05/19 03:27:32;;;;;;;15.60;9.80;;;;;;;6.86;100.00;102535.06;5040905;28;20458;-72
2023/05/19 03:29:58;;;;;;;19.67;9.52;;;;;;;6.80;100.00;102533.25;5032897;28;20029;-72
2023/05/19 03:32:23;;;;;;;15.95;9.57;;;;;;;6.71;100.00;102530.47;5039706;28;20038;-72
2023/05/19 03:34:48;;;;;;;20.25;10.20;;;;;;;6.75;100.00;102534.00;5041620;28;20030;-72
2023/05/19 03:37:13;;;;;;;16.80;9.60;;;;;;;6.74;100.00;102540.03;5036216;28;20073;-72
2023/05/19 03:39:39;;;;;;;16.10;9.85;;;;;;;6.71;100.00;102535.66;5042042;28;20382;-72
2023/05/19 03:42:04;;;;;;;19.50;10.35;;;;;;;6.73;100.00;102546.91;5038756;28;20031;-72
2023/05/19 03:44:30;;;;;;;16.08;9.40;;;;;;;6.70;100.00;102551.16;5049810;28;20404;-72
2023/05/19 03:46:55;;;;;;;19.50;10.63;;;;;;;6.62;100.00;102532.88;5045171;28;20068;-72
2023/05/19 03:49:20;;;;;;;13.68;9.85;;;;;;;6.54;100.00;102532.75;5039472;28;20021;-72
2023/05/19 03:51:45;;;;;;;23.80;11.13;;;;;;;6.62;100.00;102550.16;5032467;28;20032;-72
2023/05/19 03:54:11;;;;;;;17.52;10.32;;;;;;;6.64;100.00;102554.53;5047718;28;20028;-72
2023/05/19 03:56:38;;;;;;;15.25;10.13;;;;;;;6.56;100.00;102536.22;5037659;28;20106;-72
2023/05/19 03:59:05;;;;;;;16.23;10.35;;;;;;;6.65;100.00;102547.63;5025164;28;20032;-72
2023/05/19 04:01:31;;;;;;;18.40;10.32;;;;;;;6.58;100.00;102531.09;5037459;28;20045;-72
2023/05/19 04:03:56;;;;;;;18.85;10.55;;;;;;;6.56;100.00;102531.03;5033632;28;20467;-71
2023/05/19 04:06:22;;;;;;;17.88;10.05;;;;;;;6.61;100.00;102535.47;5037248;28;20029;-72
2023/05/19 04:08:47;;;;;;;21.27;10.98;;;;;;;6.65;100.00;102540.72;5032786;28;20048;-71
2023/05/19 04:11:12;;;;;;;13.63;10.27;;;;;;;6.60;100.00;102529.38;5033607;28;20018;-72
2023/05/19 04:13:38;;;;;;;17.13;10.65;;;;;;;6.67;100.00;102536.47;5032233;28;20060;-72
2023/05/19 04:16:03;;;;;;;19.48;11.15;;;;;;;6.67;100.00;102535.56;5029274;28;20041;-71
2023/05/19 04:18:29;;;;;;;16.63;10.50;;;;;;;6.74;100.00;102546.09;5032700;28;20108;-71
2023/05/19 04:20:54;;;;;;;17.55;10.55;;;;;;;6.79;100.00;102544.44;5033570;28;20465;-72
2023/05/19 04:23:20;;;;;;;17.02;10.77;;;;;;;6.82;100.00;102545.38;5035802;28;20075;-71
2023/05/19 04:25:47;;;;;;;21.05;11.20;;;;;;;6.80;100.00;102538.44;5037420;28;20021;-72
2023/05/19 04:28:13;;;;;;;17.58;11.55;;;;;;;6.83;100.00;102541.91;5033838;28;20026;-71
2023/05/19 04:30:39;;;;;;;16.98;10.20;;;;;;;6.89;100.00;102540.31;5033305;28;20022;-72
2023/05/19 04:33:04;;;;;;;16.08;10.82;;;;;;;6.94;100.00;102545.59;5036802;28;20021;-72
2023/05/19 04:35:30;;;;;;;21.42;11.27;;;;;;;6.87;100.00;102536.84;5038331;28;20132;-71
2023/05/19 04:37:55;;;;;;;17.50;10.65;;;;;;;6.88;100.00;102535.97;5033328;28;20053;-72
2023/05/19 04:40:22;;;;;;;16.92;10.38;;;;;;;6.95;100.00;102548.22;5033649;28;20492;-72
2023/05/19 04:42:48;;;;;;;17.30;11.00;;;;;;;7.00;100.00;102541.41;5032765;28;20632;-72
2023/05/19 04:45:14;;;;;;;20.92;11.30;;;;;;;6.95;100.00;102536.97;5033037;28;20712;-72
2023/05/19 04:47:40;;;;;;;21.95;11.60;;;;;;;7.02;100.00;102551.78;5034946;28;20171;-72
2023/05/19 04:50:06;;;;;;;19.73;10.95;;;;;;;7.06;100.00;102547.53;5038147;28;20388;-72
2023/05/19 04:52:32;;;;;;;20.63;10.95;;;;;;;7.04;100.00;102545.78;5033309;28;20036;-72
2023/05/19 04:54:57;;;;;;;18.35;12.02;;;;;;;7.04;100.00;102544.94;5032796;28;20032;-72
2023/05/19 04:57:22;;;;;;;20.73;11.18;;;;;;;7.07;100.00;102550.16;5033466;28;20025;-72
2023/05/19 04:59:48;;;;;;;20.85;11.90;;;;;;;7.08;100.00;102538.06;5044614;28;20440;-72
2023/05/19 05:02:14;;;;;;;20.33;11.30;;;;;;;7.19;100.00;102541.72;5037176;28;20030;-72
2023/05/19 05:04:41;;;;;;;20.73;11.07;;;;;;;7.29;100.00;102543.63;5037344;28;20041;-72
2023/05/19 05:07:07;;;;;;;19.60;10.50;;;;;;;7.25;100.00;102532.31;5046683;28;20347;-72
2023/05/19 05:09:32;;;;;;;21.10;10.85;;;;;;;7.38;100.00;102542.91;5033154;28;20477;-71
2023/05/19 05:11:58;;;;;;;16.50;11.25;;;;;;;7.46;100.00;102551.72;5032604;28;20060;-71
2023/05/19 05:14:24;;;;;;;23.08;11.70;;;;;;;7.50;100.00;102543.13;5035750;28;20520;-71
2023/05/19 05:16:49;;;;;;;19.35;11.65;;;;;;;7.60;100.00;102547.63;5039925;28;20397;-71
2023/05/19 05:19:15;;;;;;;19.27;11.13;;;;;;;7.61;100.00;102532.91;5030749;28;20018;-72
2023/05/19 05:21:40;;;;;;;18.23;10.65;;;;;;;7.73;100.00;102535.69;5039775;28;20037;-72
2023/05/19 05:24:07;;;;;;;21.35;10.65;;;;;;;7.76;100.00;102542.66;5032819;28;20487;-72
2023/05/19 05:26:35;;;;;;;17.13;10.88;;;;;;;7.86;100.00;102550.63;5033557;28;20453;-72
2023/05/19 05:29:01;;;;;;;16.55;10.75;;;;;;;7.96;100.00;102554.22;5031865;28;20438;-72
2023/05/19 05:31:27;;;;;;;17.83;11.00;;;;;;;7.98;100.00;102542.13;5037357;28;20472;-72
2023/05/19 05:33:52;;;;;;;17.67;10.68;;;;;;;8.07;100.00;102559.56;5032110;28;20029;-72
2023/05/19 05:36:18;;;;;;;17.83;10.60;;;;;;;8.07;100.00;102550.03;5029519;28;20041;-72
2023/05/19 05:38:43;;;;;;;20.50;11.15;;;;;;;8.12;100.00;102556.19;5038652;28;20053;-71
2023/05/19 05:41:08;;;;;;;18.25;9.82;;;;;;;8.12;100.00;102558.78;5028239;28;20389;-72
2023/05/19 05:43:34;;;;;;;16.52;11.02;;;;;;;8.17;100.00;102548.44;5018788;28;20041;-72
2023/05/19 05:45:59;;;;;;;21.90;11.82;;;;;;;8.19;100.00;102534.63;5021699;28;20029;-72
2023/05/19 05:48:25;;;;;;;16.55;10.18;;;;;;;8.30;100.00;102549.47;5014858;28;20022;-72
2023/05/19 05:50:51;;;;;;;20.17;11.07;;;;;;;8.33;100.00;102547.78;5009816;28;20030;-72
2023/05/19 05:53:18;;;;;;;17.80;10.10;;;;;;;8.40;100.00;102549.69;5009496;28;20057;-72
2023/05/19 05:55:45;;;;;;;16.65;9.95;;;;;;;8.51;100.00;102551.53;5018957;28;20026;-72
2023/05/19 05:58:13;;;;;;;14.90;10.65;;;;;;;8.63;100.00;102547.38;5010339;28;20461;-71
2023/05/19 06:00:42;;;;;;;17.08;10.38;;;;;;;8.75;100.00;102546.63;5013616;28;20029;-72
2023/05/19 06:03:08;;;;;;;19.40;10.05;;;;;;;8.78;100.00;102538.84;5012008;28;20026;-72
2023/05/19 06:05:34;;;;;;;16.70;10.23;;;;;;;8.92;100.00;102554.59;5016564;28;20030;-71
2023/05/19 06:07:59;;;;;;;14.88;10.25;;;;;;;9.08;100.00;102556.50;5012562;28;20131;-72
2023/05/19 06:10:25;;;;;;;22.15;10.75;;;;;;;9.17;100.00;102541.84;5013483;28;20034;-71
2023/05/19 06:12:50;;;;;;;16.27;10.20;;;;;;;9.43;100.00;102558.56;5020780;28;20025;-72
2023/05/19 06:15:15;;;;;;;16.55;9.95;;;;;;;9.53;100.00;102563.00;5014001;28;20103;-71
2023/05/19 06:17:41;;;;;;;19.42;10.25;;;;;;;9.60;99.59;102564.78;5013866;28;20030;-72
2023/05/19 06:20:08;;;;;;;17.40;10.68;;;;;;;9.62;99.04;102551.78;5019613;28;20049;-71
2023/05/19 06:22:34;;;;;;;18.70;9.27;;;;;;;9.61;98.96;102548.31;5019824;28;20068;-71
2023/05/19 06:25:00;;;;;;;18.88;11.23;;;;;;;9.69;98.46;102557.91;5019727;28;20069;-71
2023/05/19 06:27:25;;;;;;;13.38;9.50;;;;;;;9.70;98.18;102551.84;5030071;28;20029;-72
2023/05/19 06:29:50;;;;;;;20.92;11.30;;;;;;;9.67;98.04;102559.63;5032541;28;20037;-72
2023/05/19 06:32:15;;;;;;;17.90;10.52;;;;;;;9.63;98.29;102550.91;5030471;28;20026;-73
2023/05/19 06:34:41;;;;;;;15.80;11.05;;;;;;;9.80;99.64;102566.66;5032576;28;20029;-72
2023/05/19 06:37:06;;;;;;;17.90;9.80;;;;;;;9.82;98.52;102563.22;5037171;28;20543;-73
2023/05/19 06:39:32;;;;;;;17.90;11.00;;;;;;;9.94;98.09;102565.06;5032499;28;20068;-72
2023/05/19 06:41:57;;;;;;;21.35;10.93;;;;;;;9.99;97.41;102555.50;5033616;28;20531;-72
2023/05/19 06:44:22;;;;;;;16.63;10.30;;;;;;;10.07;97.72;102551.22;5033159;28;20045;-71
2023/05/19 06:46:48;;;;;;;12.50;9.23;;;;;;;10.09;96.42;102540.81;5037696;28;20017;-71
2023/05/19 06:49:13;;;;;;;16.08;9.63;;;;;;;10.19;96.70;102554.75;5040391;28;20121;-71
2023/05/19 06:51:38;;;;;;;19.60;10.80;;;;;;;10.21;96.44;102553.03;5031283;28;20076;-70
2023/05/19 06:54:04;;;;;;;14.40;9.70;;;;;;;10.30;94.96;102551.38;5038803;28;20366;-71
2023/05/19 06:56:29;;;;;;;22.15;10.27;;;;;;;10.32;94.68;102552.25;5034137;28;20176;-71
2023/05/19 06:58:55;;;;;;;13.73;9.88;;;;;;;10.34;93.83;102549.66;5030350;28;20083;-72
2023/05/19 07:01:20;;;;;;;20.13;10.55;;;;;;;10.46;94.07;102554.03;5029187;28;20099;-72
2023/05/19 07:03:45;;;;;;;16.60;9.80;;;;;;;10.57;93.82;102551.50;5029173;28;20464;-72
2023/05/19 07:06:11;;;;;;;20.83;10.15;;;;;;;10.66;92.04;102552.41;5033113;28;20358;-72
2023/05/19 07:08:36;;;;;;;17.70;9.93;;;;;;;10.77;92.31;102555.03;5032829;28;20029;-79
2023/05/19 07:11:02;;;;;;;15.35;9.23;;;;;;;10.91;91.57;102560.28;5034184;28;20067;-73
2023/05/19 07:13:27;;;;;;;20.90;10.77;;;;;;;10.96;89.89;102545.53;5030779;28;20420;-73
2023/05/19 07:15:54;;;;;;;15.73;9.90;;;;;;;11.19;91.21;102556.88;5032063;28;20038;-72
2023/05/19 07:18:20;;;;;;;16.80;10.55;;;;;;;11.25;88.88;102551.66;5034918;28;20083;-72
2023/05/19 07:20:45;;;;;;;19.58;10.23;;;;;;;11.37;88.12;102553.41;5038166;28;20029;-72
2023/05/19 07:23:11;;;;;;;16.77;9.45;;;;;;;11.51;86.58;102556.03;5036368;28;20026;-72
2023/05/19 07:25:36;;;;;;;19.27;9.38;;;;;;;11.64;88.77;102556.88;5034172;28;20037;-72
2023/05/19 07:28:01;;;;;;;18.90;9.70;;;;;;;11.62;85.03;102533.38;5032353;28;20026;-74
2023/05/19 07:30:27;;;;;;;16.25;9.73;;;;;;;11.79;86.33;102545.56;5033480;28;20464;-72
2023/05/19 07:32:53;;;;;;;19.60;10.07;;;;;;;11.92;86.71;102548.16;5043411;28;20477;-70
2023/05/19 07:35:19;;;;;;;16.85;9.55;;;;;;;12.07;85.60;102549.91;5035766;28;20021;-72
2023/05/19 07:37:44;;;;;;;14.15;9.07;;;;;;;12.18;85.78;102542.88;5041488;28;20037;-76
2023/05/19 07:40:10;;;;;;;16.02;9.80;;;;;;;12.27;83.67;102551.59;5033424;28;20029;-72
2023/05/19 07:42:35;;;;;;;16.92;8.98;;;;;;;12.34;83.31;102551.56;5037556;28;20033;-71
2023/05/19 07:45:02;;;;;;;17.63;10.23;;;;;;;12.41;81.01;102548.03;5035967;28;20488;-72
2023/05/19 07:47:28;;;;;;;14.18;9.35;;;;;;;12.48;83.36;102538.41;5039161;28;20037;-71
2023/05/19 07:49:53;;;;;;;12.32;8.60;;;;;;;12.60;80.78;102546.22;5040194;28;20023;-71
2023/05/19 07:52:18;;;;;;;14.60;9.88;;;;;;;12.68;79.79;102540.06;5036828;28;20037;-72
2023/05/19 07:54:44;;;;;;;14.90;9.63;;;;;;;12.76;81.31;102533.91;5048867;28;20036;-71
2023/05/19 07:57:10;;;;;;;14.50;8.38;;;;;;;12.85;78.61;102533.88;5032692;28;20025;-72
2023/05/19 07:59:35;;;;;;;14.55;8.98;;;;;;;12.92;78.44;102533.84;5031763;28;20104;-71
2023/05/19 08:02:01;;;;;;;18.08;9.40;;;;;;;12.91;78.17;102538.19;5034721;28;20473;-71
2023/05/19 08:04:26;;;;;;;14.07;8.50;;;;;;;12.98;76.61;102539.00;5033502;28;20029;-71
2023/05/19 08:06:52;;;;;;;16.80;8.45;;;;;;;13.07;79.17;102518.88;5034671;28;20036;-71
2023/05/19 08:09:17;;;;;;;13.65;9.50;;;;;;;13.32;77.50;102537.94;5037830;28;20056;-71
2023/05/19 08:11:43;;;;;;;15.48;8.80;;;;;;;13.44;77.03;102518.63;5036313;28;20056;-71
2023/05/19 08:14:09;;;;;;;14.48;7.70;;;;;;;13.71;73.04;102533.22;5031447;28;20029;-71
2023/05/19 08:16:34;;;;;;;13.77;8.60;;;;;;;13.80;75.48;102525.28;5042846;28;20052;-71
2023/05/19 08:19:02;;;;;;;14.95;7.85;;;;;;;14.00;73.62;102522.44;5035594;28;20049;-71
2023/05/19 08:21:28;;;;;;;12.57;8.05;;;;;;;14.23;74.82;102519.56;5033834;28;20013;-71
2023/05/19 08:23:53;;;;;;;14.15;7.95;;;;;;;14.45;69.48;102512.28;5031426;28;20547;-71
2023/05/19 08:26:18;;;;;;;16.83;8.52;;;;;;;14.68;68.77;102508.50;5032705;28;20084;-72
2023/05/19 08:28:44;;;;;;;15.85;8.38;;;;;;;14.97;65.11;102508.06;5031692;28;20132;-72
2023/05/19 08:31:09;;;;;;;15.95;8.18;;;;;;;15.13;66.65;102504.31;5033035;28;20369;-72
2023/05/19 08:33:34;;;;;;;12.90;7.32;;;;;;;15.29;65.26;102511.97;5033264;28;20036;-71
2023/05/19 08:36:00;;;;;;;12.80;7.18;;;;;;;15.34;62.43;102512.75;5032492;28;20370;-71
2023/05/19 08:38:25;;;;;;;11.50;6.68;;;;;;;15.39;62.10;102503.88;5032959;28;20063;-71
2023/05/19 08:40:51;;;;;;;12.75;7.43;;;;;;;15.53;62.87;102498.41;5032558;28;20017;-72
2023/05/19 08:43:16;;;;;;;16.05;7.78;;;;;;;15.71;60.40;102484.09;5033117;28;20022;-72
2023/05/19 08:45:47;;;;;;;13.77;7.05;;;;;;;15.87;61.21;102489.91;5031548;28;20045;-72
2023/05/19 08:48:13;;;;;;;14.10;6.43;;;;;;;16.08;59.84;102492.09;5032980;28;20100;-72
2023/05/19 08:50:43;;;;;;;10.27;5.70;;;;;;;16.18;55.71;102490.16;5033012;28;20063;-72
2023/05/19 08:53:21;;;;;;;11.43;5.32;;;;;;;16.31;56.34;102481.09;5032413;28;20067;-72
2023/05/19 08:56:00;;;;;;;11.85;5.55;;;;;;;16.54;59.45;102487.63;5033180;28;20026;-71
2023/05/19 08:58:27;;;;;;;13.63;5.07;;;;;;;16.71;54.77;102490.78;5032805;28;20032;-72
2023/05/19 09:00:54;;;;;;;9.10;4.97;;;;;;;16.72;55.14;102474.06;5022884;28;20451;-72
2023/05/19 09:03:20;;;;;;;10.93;6.07;;;;;;;16.82;54.71;102472.13;5031818;28;20021;-72
2023/05/19 09:05:47;;;;;;;9.88;4.72;;;;;;;17.01;51.70;102473.41;5032292;28;20033;-72
2023/05/19 09:08:12;;;;;;;8.10;3.97;;;;;;;17.09;51.49;102466.16;5031712;28;20020;-72
2023/05/19 09:10:37;;;;;;;11.52;4.60;;;;;;;17.18;50.88;102472.97;5031782;28;20017;-72
2023/05/19 09:13:04;;;;;;;9.50;3.25;;;;;;;17.02;46.16;102461.97;5031933;28;20104;-72
2023/05/19 09:15:30;;;;;;;9.90;3.47;;;;;;;16.95;47.69;102468.28;5033023;28;20045;-72
2023/05/19 09:18:06;;;;;;;8.90;2.90;;;;;;;16.97;48.58;102468.22;5032345;28;20053;-72
2023/05/19 09:20:31;;;;;;;7.45;3.28;;;;;;;16.92;47.63;102464.88;5031440;28;20389;-72
2023/05/19 09:22:58;;;;;;;9.65;4.13;;;;;;;16.94;49.24;102460.41;5032165;28;20033;-72
2023/05/19 09:25:25;;;;;;;9.88;3.80;;;;;;;17.32;46.19;102451.53;5032511;28;20025;-71
2023/05/19 09:27:53;;;;;;;8.25;3.42;;;;;;;17.67;47.55;102455.00;5031716;28;20053;-72
2023/05/19 09:30:18;;;;;;;8.98;3.15;;;;;;;17.53;45.94;102443.06;5030722;28;20018;-71
2023/05/19 09:32:45;;;;;;;11.90;3.53;;;;;;;17.53;45.75;102447.47;5032207;28;20037;-71
2023/05/19 09:35:12;;;;;;;8.13;3.80;;;;;;;17.74;46.17;102443.38;5031145;28;20033;-72
2023/05/19 09:37:43;;;;;;;6.20;3.28;;;;;;;17.88;47.75;102438.59;5032306;28;20107;-71
2023/05/19 09:40:11;;;;;;;11.13;3.83;;;;;;;17.80;47.12;102448.53;5031340;28;20018;-72
2023/05/19 09:42:37;;;;;;;7.13;3.40;;;;;;;17.98;44.43;102445.38;5032307;28;20029;-71
2023/05/19 09:45:04;;;;;;;8.40;2.50;;;;;;;17.78;42.65;102453.81;5031960;28;20053;-72
2023/05/19 09:47:39;;;;;;;7.88;2.60;;;;;;;17.54;43.98;102450.06;5031864;28;20362;-72
2023/05/19 09:50:07;;;;;;;7.05;2.65;;;;;;;17.22;43.82;102453.53;5031575;28;20029;-72
2023/05/19 09:52:42;;;;;;;8.38;3.08;;;;;;;17.08;45.35;102446.00;5031659;28;20033;-72
2023/05/19 09:55:09;;;;;;;7.38;2.55;;;;;;;17.04;44.92;102446.13;5031953;28;20067;-71
2023/05/19 09:57:36;;;;;;;6.13;2.60;;;;;;;17.10;45.65;102461.75;5032463;28;20026;-72
2023/05/19 10:00:19;;;;;;;9.80;3.13;;;;;;;17.35;45.95;102461.16;5031361;28;20028;-71
2023/05/19 10:02:45;;;;;;;7.47;2.97;;;;;;;17.20;44.97;102462.38;5024064;28;20108;-72
2023/05/19 10:05:18;;;;;;;7.60;3.03;;;;;;;17.13;45.76;102459.03;5032423;28;20045;-71
2023/05/19 10:07:53;;;;;;;7.00;2.92;;;;;;;17.27;44.30;102453.44;5032034;28;20072;-72
2023/05/19 10:10:20;;;;;;;6.95;3.00;;;;;;;17.52;45.72;102449.22;5031929;28;20025;-71
2023/05/19 10:12:47;;;;;;;7.47;3.05;;;;;;;17.69;42.45;102442.63;5031838;28;20512;-71
2023/05/19 10:15:17;;;;;;;6.18;2.30;;;;;;;17.94;42.58;102437.56;5032273;28;20026;-71
2023/05/19 10:17:43;;;;;;;5.95;2.80;;;;;;;18.28;41.70;102439.19;5031509;28;20048;-72
2023/05/19 10:20:11;;;;;;;5.45;2.50;;;;;;;18.42;40.90;102447.56;5032433;28;20151;-71
2023/05/19 10:22:37;;;;;;;8.23;2.67;;;;;;;18.50;43.89;102445.53;5031932;28;20418;-71
2023/05/19 10:25:03;;;;;;;9.63;2.80;;;;;;;18.61;42.00;102437.31;5031668;28;20098;-72
2023/05/19 10:27:30;;;;;;;6.10;2.83;;;;;;;18.60;42.37;102441.69;5031917;28;20056;-72
2023/05/19 10:30:00;;;;;;;8.18;2.80;;;;;;;18.73;42.80;102439.56;5032136;28;20026;-72
2023/05/19 10:32:29;;;;;;;7.07;2.75;;;;;;;18.86;41.85;102440.88;5031686;28;20113;-72
2023/05/19 10:35:31;;;;;;;9.95;3.03;;;;;;;19.06;43.09;102434.94;5031615;28;20377;-72
2023/05/19 10:38:19;;;;;;;7.65;2.70;;;;;;;19.11;42.07;102427.72;5031440;28;20033;-72
2023/05/19 10:40:59;;;;;;;8.63;3.00;;;;;;;19.48;41.78;102425.59;5034703;28;20044;-72
2023/05/19 10:43:28;;;;;;;9.50;3.15;;;;;;;19.53;41.83;102415.72;5035666;28;20025;-72
2023/05/19 10:45:54;;;;;;;11.35;3.45;;;;;;;19.54;41.58;102420.06;5035014;28;20466;-72
2023/05/19 10:48:20;;;;;;;8.45;3.00;;;;;;;19.49;40.72;102416.72;5035519;28;20021;-72
2023/05/19 10:50:46;;;;;;;8.15;3.13;;;;;;;19.46;41.35;102422.16;5035663;28;20030;-72
2023/05/19 10:53:16;;;;;;;11.82;3.60;;;;;;;19.24;41.15;102417.59;5035393;28;20527;-72
2023/05/19 10:55:49;;;;;;;7.43;3.30;;;;;;;19.39;41.32;102411.78;5021772;28;20026;-71
2023/05/19 10:58:14;;;;;;;7.03;3.03;;;;;;;19.57;40.58;102412.88;5035775;28;20120;-72
2023/05/19 11:00:42;;;;;;;6.85;3.05;;;;;;;19.55;38.20;102406.78;5034603;28;20426;-71
2023/05/19 11:03:23;;;;;;;8.50;3.25;;;;;;;19.34;40.45;102397.84;5035237;28;20044;-72
2023/05/19 11:05:51;;;;;;;9.85;3.63;;;;;;;19.22;41.43;102400.06;5034826;28;20048;-72
2023/05/19 11:08:31;;;;;;;6.28;3.65;;;;;;;19.43;42.07;102407.25;5035641;28;20074;-72
2023/05/19 11:11:11;;;;;;;8.18;3.00;;;;;;;19.79;42.16;102407.72;5034820;28;20021;-72
2023/05/19 11:13:39;;;;;;;10.10;2.88;;;;;;;20.21;39.90;102407.00;5034693;28;20030;-72
2023/05/19 11:16:08;;;;;;;7.53;2.50;;;;;;;20.34;37.14;102410.03;5035402;28;20025;-72
2023/05/19 11:18:34;;;;;;;6.03;2.55;;;;;;;20.30;37.88;102395.16;5035203;28;20075;-72